createdAt,value
2022-11-17T00:00:59.320Z,24.4
2022-11-17T00:06:38.684Z,24.3
2022-11-17T00:12:20.638Z,24
2022-11-17T00:17:30.115Z,24.1
2022-11-17T00:23:07.421Z,26.5
2022-11-17T00:28:29.033Z,24.7
2022-11-17T00:33:52.157Z,24.3
2022-11-17T00:38:59.398Z,24.4
2022-11-17T00:44:36.642Z,24.4
2022-11-17T00:49:28.433Z,24.1
2022-11-17T00:54:36.246Z,23.7
2022-11-17T00:59:58.769Z,25.2
2022-11-17T01:05:06.027Z,26.2
2022-11-17T01:10:29.638Z,24.4
2022-11-17T01:15:51.212Z,24.3
2022-11-17T01:21:29.237Z,24.4
2022-11-17T01:26:21.014Z,24.3
2022-11-17T01:31:28.014Z,24
2022-11-17T01:36:19.899Z,23.7
2022-11-17T01:41:41.486Z,25.8
2022-11-17T01:47:04.438Z,25.3
2022-11-17T01:52:11.151Z,24.3
2022-11-17T01:57:32.553Z,24.4
2022-11-17T02:02:56.454Z,24.4
2022-11-17T02:08:33.996Z,24.3
2022-11-17T02:14:11.804Z,23.9
2022-11-17T02:19:44.423Z,24.8
2022-11-17T02:24:36.055Z,27.1
2022-11-17T02:30:00.452Z,24.5
2022-11-17T02:35:23.789Z,24.3
2022-11-17T02:40:45.532Z,24.4
2022-11-17T02:45:52.835Z,24.3
2022-11-17T02:51:19.194Z,24.1
2022-11-17T02:56:42.422Z,23.7
2022-11-17T03:01:48.838Z,25.9
2022-11-17T03:07:12.469Z,25.1
2022-11-17T03:12:51.515Z,24.3
2022-11-17T03:18:28.529Z,24.4
2022-11-17T03:24:07.219Z,24.4
2022-11-17T03:29:45.126Z,24.2
2022-11-17T03:35:25.145Z,23.8
2022-11-17T03:41:09.990Z,25.8
2022-11-17T03:46:32.271Z,25.1
2022-11-17T03:51:23.276Z,24.3
2022-11-17T03:57:02.492Z,24.4
2022-11-17T04:02:23.892Z,24.4
2022-11-17T04:07:46.518Z,24.2
2022-11-17T04:13:27.156Z,23.9
2022-11-17T04:19:07.904Z,25
2022-11-17T04:24:45.851Z,26.3
2022-11-17T04:30:08.393Z,24.4
2022-11-17T04:35:46.025Z,24.3
2022-11-17T04:41:08.103Z,24.4
2022-11-17T04:46:46.972Z,24.3
2022-11-17T04:52:29.543Z,23.9
2022-11-17T04:57:52.203Z,24.8
2022-11-17T05:03:17.658Z,27.2
2022-11-17T05:08:56.244Z,24.4
2022-11-17T05:14:33.398Z,24.3
2022-11-17T05:19:58.916Z,24.4
2022-11-17T05:25:21.145Z,24.3
2022-11-17T05:30:58.400Z,23.9
2022-11-17T05:36:41.981Z,24.4
2022-11-17T05:42:20.106Z,27.1
2022-11-17T05:47:47.108Z,26.4
2022-11-17T05:53:14.236Z,24.8
2022-11-17T05:58:36.040Z,24.6
2022-11-17T06:03:45.696Z,25.1
2022-11-17T06:09:15.461Z,27.1
2022-11-17T06:14:54.217Z,26.3
2022-11-17T06:20:30.264Z,24.9
2022-11-17T06:26:09.838Z,24.9
2022-11-17T06:31:49.173Z,25.1
2022-11-17T06:37:11.789Z,26.9
2022-11-17T06:42:53.043Z,26.8
2022-11-17T06:48:31.749Z,25.1
2022-11-17T06:54:15.726Z,24.8
2022-11-17T06:59:39.188Z,24.8
2022-11-17T07:05:03.080Z,25.9
2022-11-17T07:10:45.017Z,28.3
2022-11-17T07:16:09.618Z,25.4
2022-11-17T07:21:48.683Z,24.9
2022-11-17T07:27:17.236Z,24.9
2022-11-17T07:32:55.729Z,25.1
2022-11-17T07:38:34.504Z,26.8
2022-11-17T07:44:12.527Z,24.9
2022-11-17T07:49:54.520Z,24.7
2022-11-17T07:55:17.901Z,24.7
2022-11-17T08:01:02.712Z,24.6
2022-11-17T08:06:32.059Z,24.2
2022-11-17T08:11:40.943Z,23.8
2022-11-17T08:17:05.099Z,25
2022-11-17T08:22:30.629Z,26.1
2022-11-17T08:27:54.261Z,24.7
2022-11-17T08:33:16.605Z,24.6
2022-11-17T08:38:42.467Z,24.6
2022-11-17T08:44:25.327Z,24.5
2022-11-17T08:50:04.693Z,24.2
2022-11-17T08:55:28.622Z,23.7
2022-11-17T09:01:08.191Z,25.9
2022-11-17T09:06:46.354Z,25
2022-11-17T09:12:42.299Z,24.5
2022-11-17T09:18:23.958Z,24.5
2022-11-17T09:23:50.887Z,24.4
2022-11-17T09:29:14.506Z,24.3
2022-11-17T09:34:40.376Z,23.9
2022-11-17T09:40:04.819Z,24.9
2022-11-17T09:45:43.056Z,25.9
2022-11-17T09:51:44.409Z,24.6
2022-11-17T09:57:28.806Z,24.5
2022-11-17T10:03:07.703Z,24.5
2022-11-17T10:08:51.070Z,24.3
2022-11-17T10:14:31.091Z,24
2022-11-17T10:20:08.948Z,24.9
2022-11-17T10:25:48.553Z,25.9
2022-11-17T10:31:25.789Z,24.5
2022-11-17T10:37:10.422Z,24.5
2022-11-17T10:42:57.034Z,24.5
2022-11-17T10:48:44.376Z,24.3
2022-11-17T10:54:23.322Z,23.9
2022-11-17T11:00:01.766Z,24.9
2022-11-17T11:05:38.770Z,25.9
2022-11-17T11:11:22.877Z,24.5
2022-11-17T11:17:04.635Z,24.5
2022-11-17T11:22:42.171Z,24.5
2022-11-17T11:28:04.497Z,24.3
2022-11-17T11:33:47.926Z,24
2022-11-17T11:39:28.563Z,25.2
2022-11-17T11:45:11.594Z,25.3
2022-11-17T11:50:55.455Z,24.5
2022-11-17T11:56:21.172Z,24.6
2022-11-17T12:02:02.147Z,24.5
2022-11-17T12:07:41.383Z,24.3
2022-11-17T12:13:19.152Z,23.9
2022-11-17T12:19:03.489Z,25.1
2022-11-17T12:24:41.531Z,25.6
2022-11-17T12:30:21.616Z,24.4
2022-11-17T12:35:59.591Z,24.6
2022-11-17T12:41:22.619Z,24.5
2022-11-17T12:47:06.489Z,24.3
2022-11-17T12:53:20.752Z,23.9
2022-11-17T12:59:01.328Z,24.8
2022-11-17T13:04:39.028Z,26
2022-11-17T13:10:49.379Z,24.4
2022-11-17T13:16:32.727Z,24.6
2022-11-17T13:22:11.082Z,24.5
2022-11-17T13:27:19.180Z,24.3
2022-11-17T13:33:02.999Z,24
2022-11-17T13:38:45.257Z,23.7
2022-11-17T13:44:29.782Z,23.3
2022-11-17T13:50:08.535Z,22.9
2022-11-17T13:55:50.252Z,22.6
2022-11-17T14:01:30.060Z,22.3
2022-11-17T14:07:09.387Z,22
2022-11-17T14:12:47.419Z,21.7
2022-11-17T14:18:25.957Z,21.4
2022-11-17T14:24:12.405Z,21.2
2022-11-17T14:29:50.542Z,20.9
2022-11-17T14:35:38.618Z,20.8
2022-11-17T14:41:05.677Z,20.6
2022-11-17T14:46:47.104Z,20.4
2022-11-17T14:52:14.240Z,20.2
2022-11-17T14:57:21.912Z,20
2022-11-17T15:03:06.269Z,19.9
2022-11-17T15:09:19.848Z,19.7
2022-11-17T15:14:59.718Z,19.6
2022-11-17T15:20:21.934Z,19.4
2022-11-17T15:26:05.453Z,19.3
2022-11-17T15:31:29.133Z,19.2
2022-11-17T15:37:07.487Z,19.1
2022-11-17T15:42:53.951Z,19
2022-11-17T15:48:18.801Z,18.9
2022-11-17T15:54:29.183Z,18.9
2022-11-17T16:00:07.296Z,18.8
2022-11-17T16:05:45.610Z,18.8
2022-11-17T16:10:57.448Z,18.8
2022-11-17T16:16:34.952Z,18.8
2022-11-17T16:22:13.589Z,18.8
2022-11-17T16:27:51.624Z,18.9
2022-11-17T16:33:03.034Z,18.9
2022-11-17T16:39:13.325Z,19
2022-11-17T16:44:36.099Z,19.1
2022-11-17T16:50:13.814Z,19.2
2022-11-17T16:55:55.631Z,19.4
2022-11-17T17:01:17.991Z,19.4
2022-11-17T17:06:57.018Z,19.6
2022-11-17T17:12:20.072Z,19.8
2022-11-17T17:17:42.509Z,20
2022-11-17T17:23:05.181Z,20.3
2022-11-17T17:28:12.077Z,20.5
2022-11-17T17:33:51.914Z,20.8
2022-11-17T17:39:14.075Z,21.2
2022-11-17T17:44:52.708Z,21.4
2022-11-17T17:50:30.538Z,21.8
2022-11-17T17:55:37.079Z,22
2022-11-17T18:01:14.677Z,22.3
2022-11-17T18:06:39.300Z,22.6
2022-11-17T18:12:17.671Z,23.1
2022-11-17T18:17:59.286Z,23.6
2022-11-17T18:23:43.429Z,24.3
2022-11-17T18:29:28.398Z,24.9
2022-11-17T18:35:06.489Z,25.5
2022-11-17T18:40:44.270Z,26.1
2022-11-17T18:46:22.408Z,26.4
2022-11-17T18:52:28.567Z,26.9
2022-11-17T18:58:08.731Z,27.3
2022-11-17T19:03:31.482Z,27.7
2022-11-17T19:09:10.151Z,28.1
2022-11-17T19:14:48.204Z,28.4
2022-11-17T19:20:26.475Z,28.8
2022-11-17T19:25:50.835Z,29.2
2022-11-17T19:31:31.915Z,29.6
2022-11-17T19:36:49.873Z,29.8
2022-11-17T19:42:28.627Z,30.1
2022-11-17T19:48:11.969Z,30.4
2022-11-17T19:53:48.827Z,30.6
2022-11-17T19:59:15.917Z,30.8
2022-11-17T20:04:38.864Z,31
2022-11-17T20:09:45.870Z,31.1
2022-11-17T20:14:53.153Z,31.1
2022-11-17T20:21:00.820Z,31
2022-11-17T20:26:28.784Z,30.8
2022-11-17T20:32:12.493Z,30.5
2022-11-17T20:37:50.561Z,30.2
2022-11-17T20:43:30.020Z,29.9
2022-11-17T20:48:52.569Z,29.4
2022-11-17T20:54:15.264Z,29
2022-11-17T20:59:54.561Z,28.6
2022-11-17T21:05:17.574Z,28.1
2022-11-17T21:11:02.759Z,27.7
2022-11-17T21:16:24.905Z,27.3
2022-11-17T21:22:08.832Z,26.9
2022-11-17T21:27:46.798Z,26.5
2022-11-17T21:33:16.425Z,26.1
2022-11-17T21:38:44.243Z,27.4
2022-11-17T21:44:07.771Z,29
2022-11-17T21:49:44.919Z,28.3
2022-11-17T21:55:22.838Z,27.6
2022-11-17T22:00:45.561Z,27
2022-11-17T22:06:08.792Z,26.6
2022-11-17T22:11:31.989Z,26.1
2022-11-17T22:17:09.373Z,25.8
2022-11-17T22:22:47.083Z,25.3
2022-11-17T22:28:40.084Z,26.6
2022-11-17T22:34:20.889Z,28.4
2022-11-17T22:39:43.378Z,28.5
2022-11-17T22:45:28.203Z,28.2
2022-11-17T22:51:05.920Z,27.9
2022-11-17T22:56:42.863Z,27.6
2022-11-17T23:02:10.671Z,27.1
2022-11-17T23:07:33.240Z,26.6
2022-11-17T23:13:48.665Z,26.2
2022-11-17T23:19:11.425Z,25.8
2022-11-17T23:24:34.013Z,25.4
2022-11-17T23:30:11.805Z,25.4
2022-11-17T23:35:49.684Z,28.1
2022-11-17T23:41:31.067Z,27.5
2022-11-17T23:47:10.109Z,27.3
2022-11-17T23:52:47.939Z,26.8
2022-11-17T23:58:25.233Z,26.3
